Putte, Belgium
Current Conditions -  °F | °C
As of 2:50 PM on Wednesday 28 Jan 2015 (Local Time) from EBBR Reporting Station
Light Rain Light Rain  
Wind Chill: 33°   Ceiling: 1300
Heat Index: 43°   Visibility: 2.5mi
Dew Point: 41°   Wind: 25mph
Humidity: 93%   Direction: 210°SSW
Pressure: 29.53"   Gusts: NA
Location:  51.05°N, 4.63°E
Report Text: EBBR 281350Z 21022KT 4000 -RA BR SCT009 BKN013 06/05 Q1000 TEMPO 3000 RADZ BKN007
Loading
Personal Weather Stations






























Interactive Weather Map New forecast layout! Learn more

10-Day Weather Forecast

Advertisements
Track Severe Weather on mobile